This demonstration page uses our WeatherBlox Daily Observations layout. Learn more.

38.88101, -77.10428

Hourly Observations for January 9, 2020

Temp ( °F °C ) Dew Point ( °F °C ) Humidity (%) Winds ( mph kmh ) Pressure ( in mb ) Visibility ( mi km ) Precip ( " mm )
12:52 am 00:52 Mostly Clear 32 0 17 -8.3 54 54 NNW 13 20 30.53 1034 10 16.0934 0 0
1:52 am 01:52 Mostly Clear 31 -0.6 16 -8.9 54 54 NNW 9 15 30.58 1036 10 16.0934 0 0
2:52 am 02:52 Mostly Clear 31 -0.6 16 -8.9 54 54 N 13 20 30.62 1037 10 16.0934 0 0
3:52 am 03:52 Mostly Clear 30 -1.1 16 -8.9 56 56 N 12 19 30.63 1037 10 16.0934 0 0
4:52 am 04:52 Clear 30 -1.1 15 -9.4 54 54 N 14 22 30.64 1038 10 16.0934 0 0
5:52 am 05:52 Clear 30 -1.1 15 -9.4 54 54 N 14 22 30.68 1039 10 16.0934 0 0
6:52 am 06:52 Clear 30 -1.1 15 -9.4 54 54 NNE 12 19 30.7 1040 10 16.0934 0 0
7:52 am 07:52 Partly Cloudy 29 -1.7 15 -9.4 56 56 NE 10 17 30.73 1041 10 16.0934 0 0
8:52 am 08:52 Mostly Cloudy 31 -0.6 16 -8.9 54 54 NE 12 19 30.76 1042 10 16.0934 0 0
9:52 am 09:52 Mostly Cloudy 32 0 14 -10 47 47 NE 5 7 30.79 1043 10 16.0934 0 0
10:52 am 10:52 Mostly Cloudy 35 1.7 14 -10 42 42 ENE 6 9 30.78 1042 10 16.0934 0 0
11:52 am 11:52 Mostly Cloudy 35 1.7 13 -10.6 40 40 Calm 30.76 1042 10 16.0934 0 0
12:52 pm 12:52 Mostly Cloudy 37 2.8 13 -10.6 37 37 SE 3 6 30.73 1041 10 16.0934 0 0
1:52 pm 13:52 Mostly Cloudy 38 3.3 15 -9.4 39 39 Calm 30.72 1040 10 16.0934 0 0
2:52 pm 14:52 Mostly Cloudy 40 4.4 16 -8.9 38 38 Calm 30.7 1040 10 16.0934 0 0
3:52 pm 15:52 Mostly Cloudy 41 5 18 -7.8 39 39 S 5 7 30.7 1040 10 16.0934 0 0
4:52 pm 16:52 Mostly Cloudy 39 3.9 21 -6.1 48 48 SE 9 15 30.7 1040 10 16.0934 0 0
5:52 pm 17:52 Mostly Cloudy 36 2.2 19 -7.2 50 50 SE 13 20 30.7 1040 10 16.0934 0 0
6:52 pm 18:52 Mostly Cloudy 35 1.7 19 -7.2 52 52 SSE 7 11 30.72 1040 10 16.0934 0 0
7:52 pm 19:52 Mostly Cloudy 35 1.7 18 -7.8 50 50 S 12 19 30.72 1040 10 16.0934 0 0
8:52 pm 20:52 Mostly Cloudy 35 1.7 17 -8.3 48 48 SSE 6 9 30.72 1040 10 16.0934 0 0
9:52 pm 21:52 Mostly Cloudy 35 1.7 22 -5.6 59 59 SSE 7 11 30.71 1040 10 16.0934 0 0
10:52 pm 22:52 Mostly Cloudy 36 2.2 25 -3.9 64 64 S 10 17 30.69 1039 10 16.0934 0 0
11:52 pm 23:52 Cloudy 36 2.2 27 -2.8 70 70 SSE 8 13 30.66 1038 10 16.0934 0 0

Powered by AerisWeather